createdAt,value
2019-04-03T00:00:36.885Z,2.00
2019-04-03T00:03:04.787Z,2.10
2019-04-03T00:05:33.726Z,1.60
2019-04-03T00:08:01.239Z,2.30
2019-04-03T00:10:28.459Z,1.43
2019-04-03T00:12:55.735Z,2.13
2019-04-03T00:15:22.984Z,1.80
2019-04-03T00:17:50.195Z,1.90
2019-04-03T00:20:18.407Z,1.83
2019-04-03T00:22:46.788Z,1.37
2019-04-03T00:25:14.083Z,2.37
2019-04-03T00:27:41.286Z,2.07
2019-04-03T00:30:08.586Z,2.00
2019-04-03T00:32:36.074Z,2.00
2019-04-03T00:35:04.559Z,2.20
2019-04-03T00:37:31.770Z,2.00
2019-04-03T00:39:59.001Z,1.60
2019-04-03T00:42:26.206Z,1.63
2019-04-03T00:44:54.727Z,2.00
2019-04-03T00:47:22.220Z,2.40
2019-04-03T00:49:49.439Z,2.00
2019-04-03T00:52:16.652Z,2.27
2019-04-03T00:54:43.871Z,2.47
2019-04-03T00:57:11.090Z,2.67
2019-04-03T00:59:38.312Z,2.03
2019-04-03T01:02:05.531Z,1.77
2019-04-03T01:04:32.944Z,1.70
2019-04-03T01:07:00.253Z,1.93
2019-04-03T01:09:29.063Z,2.00
2019-04-03T01:11:56.458Z,2.20
2019-04-03T01:14:23.668Z,1.43
2019-04-03T01:16:50.897Z,1.90
2019-04-03T01:19:18.156Z,2.20
2019-04-03T01:21:45.390Z,1.93
2019-04-03T01:24:12.608Z,1.90
2019-04-03T01:26:40.735Z,2.00
2019-04-03T01:29:08.426Z,2.40
2019-04-03T01:31:35.648Z,2.07
2019-04-03T01:34:02.868Z,1.60
2019-04-03T01:36:30.170Z,2.00
2019-04-03T01:38:57.372Z,1.83
2019-04-03T01:41:24.592Z,2.50
2019-04-03T01:43:53.865Z,2.27
2019-04-03T01:46:20.822Z,2.27
2019-04-03T01:48:48.055Z,2.57
2019-04-03T01:51:15.389Z,2.20
2019-04-03T01:53:42.558Z,2.03
2019-04-03T01:56:09.771Z,2.43
2019-04-03T01:58:37.025Z,2.20
2019-04-03T02:01:04.515Z,1.97
2019-04-03T02:03:31.863Z,2.03
2019-04-03T02:05:59.094Z,2.60
2019-04-03T02:08:26.312Z,2.30
2019-04-03T02:10:54.024Z,2.40
2019-04-03T02:13:21.987Z,2.53
2019-04-03T02:15:50.672Z,2.27
2019-04-03T02:18:18.363Z,2.33
2019-04-03T02:20:45.722Z,2.37
2019-04-03T02:23:12.953Z,2.00
2019-04-03T02:25:40.159Z,2.30
2019-04-03T02:28:07.384Z,3.07
2019-04-03T02:30:34.846Z,2.80
2019-04-03T02:33:02.162Z,2.60
2019-04-03T02:35:29.388Z,3.47
2019-04-03T02:37:56.609Z,2.27
2019-04-03T02:40:24.020Z,2.17
2019-04-03T02:42:51.265Z,2.73
2019-04-03T02:45:20.489Z,2.40
2019-04-03T02:47:47.578Z,2.83
2019-04-03T02:50:16.687Z,2.43
2019-04-03T02:52:44.127Z,2.70
2019-04-03T02:55:11.354Z,2.70
2019-04-03T02:57:38.683Z,2.43
2019-04-03T03:00:07.620Z,1.73
2019-04-03T03:02:34.836Z,1.90
2019-04-03T03:05:02.394Z,1.90
2019-04-03T03:07:29.829Z,1.70
2019-04-03T03:09:57.291Z,1.90
2019-04-03T03:12:27.145Z,1.97
2019-04-03T03:14:53.528Z,2.20
2019-04-03T03:17:23.001Z,2.40
2019-04-03T03:19:51.499Z,2.20
2019-04-03T03:22:19.379Z,1.90
2019-04-03T03:24:46.657Z,2.17
2019-04-03T03:27:13.876Z,2.50
2019-04-03T03:29:41.185Z,2.20
2019-04-03T03:32:17.770Z,2.52
2019-04-03T03:34:50.890Z,2.98
2019-04-03T03:37:06.725Z,2.70
2019-04-03T03:39:34.139Z,2.42
2019-04-03T03:42:01.877Z,3.10
2019-04-03T03:44:29.404Z,2.87
2019-04-03T03:47:00.993Z,2.90
2019-04-03T03:49:27.013Z,2.90
2019-04-03T03:51:54.935Z,2.60
2019-04-03T03:54:22.771Z,3.00
2019-04-03T03:56:50.564Z,2.22
2019-04-03T03:59:18.898Z,2.55
2019-04-03T04:01:46.294Z,2.65
2019-04-03T04:04:15.620Z,2.75
2019-04-03T04:06:43.756Z,3.10
2019-04-03T04:09:11.460Z,3.62
2019-04-03T04:11:39.156Z,3.08
2019-04-03T04:14:06.394Z,3.05
2019-04-03T04:16:37.045Z,2.60
2019-04-03T04:19:04.454Z,2.83
2019-04-03T04:21:32.598Z,3.60
2019-04-03T04:24:00.035Z,3.02
2019-04-03T04:26:27.438Z,3.12
2019-04-03T04:28:54.735Z,2.65
2019-04-03T04:31:22.022Z,2.92
2019-04-03T04:33:49.313Z,2.87
2019-04-03T04:36:16.527Z,3.10
2019-04-03T04:38:44.073Z,2.77
2019-04-03T04:41:11.431Z,3.35
2019-04-03T04:43:39.571Z,3.47
2019-04-03T04:46:09.259Z,2.50
2019-04-03T04:48:36.287Z,2.83
2019-04-03T04:51:03.611Z,3.67
2019-04-03T04:53:30.851Z,3.30
2019-04-03T04:55:58.080Z,2.62
2019-04-03T04:58:25.304Z,2.72
2019-04-03T05:00:53.684Z,3.15
2019-04-03T05:03:21.843Z,3.30
2019-04-03T05:05:49.616Z,3.83
2019-04-03T05:08:16.953Z,3.10
2019-04-03T05:10:44.223Z,3.50
2019-04-03T05:13:11.438Z,3.58
2019-04-03T05:15:38.842Z,3.25
2019-04-03T05:18:06.125Z,4.40
2019-04-03T05:20:33.719Z,3.22
2019-04-03T05:23:01.002Z,3.50
2019-04-03T05:25:29.773Z,3.67
2019-04-03T05:27:57.356Z,3.17
2019-04-03T05:30:31.852Z,3.50
2019-04-03T05:32:59.611Z,3.67
2019-04-03T05:35:27.022Z,3.20
2019-04-03T05:37:54.277Z,3.37
2019-04-03T05:40:21.760Z,3.40
2019-04-03T05:42:49.052Z,3.42
2019-04-03T05:45:16.419Z,3.27
2019-04-03T05:47:43.671Z,3.58
2019-04-03T05:50:10.903Z,3.50
2019-04-03T05:52:38.119Z,4.00
2019-04-03T05:55:05.999Z,3.02
2019-04-03T05:57:33.320Z,2.95
2019-04-03T06:00:02.062Z,3.92
2019-04-03T06:02:29.504Z,3.25
2019-04-03T06:04:56.755Z,2.98
2019-04-03T06:07:24.186Z,3.72
2019-04-03T06:09:51.942Z,3.65
2019-04-03T06:12:20.498Z,2.95
2019-04-03T06:14:49.686Z,3.87
2019-04-03T06:17:16.690Z,3.70
2019-04-03T06:19:44.018Z,3.80
2019-04-03T06:22:11.315Z,4.10
2019-04-03T06:24:38.585Z,4.72
2019-04-03T06:27:06.046Z,4.15
2019-04-03T06:29:34.823Z,3.58
2019-04-03T06:32:02.050Z,4.30
2019-04-03T06:34:29.272Z,5.12
2019-04-03T06:36:56.509Z,4.33
2019-04-03T06:39:24.258Z,5.12
2019-04-03T06:41:51.643Z,5.03
2019-04-03T06:44:20.574Z,4.65
2019-04-03T06:46:47.823Z,4.95
2019-04-03T06:49:15.032Z,4.20
2019-04-03T06:51:42.832Z,4.03
2019-04-03T06:54:10.056Z,4.40
2019-04-03T06:56:39.996Z,4.77
2019-04-03T06:59:06.521Z,5.10
2019-04-03T07:01:33.937Z,5.37
2019-04-03T07:04:01.444Z,5.30
2019-04-03T07:06:28.893Z,5.37
2019-04-03T07:08:56.240Z,5.37
2019-04-03T07:11:24.127Z,5.50
2019-04-03T07:13:53.237Z,4.30
2019-04-03T07:16:20.426Z,4.03
2019-04-03T07:18:47.617Z,4.93
2019-04-03T07:21:14.889Z,4.40
2019-04-03T07:23:42.339Z,4.70
2019-04-03T07:26:09.634Z,4.57
2019-04-03T07:28:36.851Z,5.17
2019-04-03T07:31:04.254Z,4.37
2019-04-03T07:33:31.433Z,4.90
2019-04-03T07:35:58.997Z,4.87
2019-04-03T07:38:26.519Z,4.07
2019-04-03T07:40:54.045Z,4.30
2019-04-03T07:43:21.542Z,4.70
2019-04-03T07:45:48.808Z,3.80
2019-04-03T07:48:16.167Z,3.53
2019-04-03T07:50:43.414Z,4.00
2019-04-03T07:53:10.627Z,4.10
2019-04-03T07:55:37.856Z,4.20
2019-04-03T07:58:05.076Z,4.63
2019-04-03T08:00:32.298Z,4.00
2019-04-03T08:02:59.512Z,3.60
2019-04-03T08:05:26.775Z,3.80
2019-04-03T08:07:54.075Z,3.57
2019-04-03T08:10:21.340Z,2.27
2019-04-03T08:12:48.540Z,3.10
2019-04-03T08:15:15.758Z,3.10
2019-04-03T08:17:42.979Z,2.77
2019-04-03T08:20:10.455Z,3.17
2019-04-03T08:22:38.051Z,2.63
2019-04-03T08:25:06.483Z,2.70
2019-04-03T08:27:33.770Z,3.57
2019-04-03T08:30:01.201Z,2.53
2019-04-03T08:32:28.647Z,2.70
2019-04-03T08:34:55.867Z,2.50
2019-04-03T08:37:30.251Z,3.10
2019-04-03T08:39:52.186Z,3.33
2019-04-03T08:42:19.419Z,2.80
2019-04-03T08:44:46.700Z,2.80
2019-04-03T08:47:14.737Z,3.20
2019-04-03T08:49:42.183Z,2.30
2019-04-03T08:52:09.402Z,2.90
2019-04-03T08:54:36.633Z,2.77
2019-04-03T08:57:04.401Z,2.50
2019-04-03T08:59:31.936Z,2.60
2019-04-03T09:01:59.313Z,2.83
2019-04-03T09:04:26.647Z,3.10
2019-04-03T09:06:54.642Z,2.50
2019-04-03T09:09:21.958Z,2.30
2019-04-03T09:11:49.185Z,2.80
2019-04-03T09:14:19.237Z,2.63
2019-04-03T09:16:45.341Z,2.83
2019-04-03T09:19:12.676Z,2.40
2019-04-03T09:21:39.950Z,3.30
2019-04-03T09:24:07.163Z,2.33
2019-04-03T09:26:37.162Z,2.00
2019-04-03T09:29:03.866Z,3.00
2019-04-03T09:31:31.079Z,2.50
2019-04-03T09:33:58.651Z,2.93
2019-04-03T09:36:25.863Z,2.30
2019-04-03T09:38:53.127Z,3.10
2019-04-03T09:41:20.789Z,2.53
2019-04-03T09:43:48.149Z,3.03
2019-04-03T09:46:15.599Z,2.87
2019-04-03T09:48:42.952Z,2.87
2019-04-03T09:51:10.548Z,3.40
2019-04-03T09:53:37.838Z,2.70
2019-04-03T09:56:07.301Z,2.87
2019-04-03T09:58:35.614Z,2.80
2019-04-03T10:01:03.134Z,2.30
2019-04-03T10:03:31.565Z,3.00
2019-04-03T10:06:00.070Z,3.40
2019-04-03T10:08:28.142Z,2.83
2019-04-03T10:10:55.834Z,3.17
2019-04-03T10:13:25.906Z,3.07
2019-04-03T10:15:52.080Z,3.10
2019-04-03T10:18:21.909Z,2.70
2019-04-03T10:20:49.498Z,2.00
2019-04-03T10:23:17.042Z,2.53
2019-04-03T10:25:44.259Z,2.17
2019-04-03T10:28:13.681Z,2.70
2019-04-03T10:30:40.601Z,2.50
2019-04-03T10:33:07.987Z,2.07
2019-04-03T10:35:35.298Z,2.27
2019-04-03T10:38:02.489Z,3.63
2019-04-03T10:40:29.913Z,1.97
2019-04-03T10:42:59.841Z,2.37
2019-04-03T10:45:26.242Z,3.00
2019-04-03T10:47:55.451Z,2.80
2019-04-03T10:50:23.024Z,2.40
2019-04-03T10:52:50.307Z,2.30
2019-04-03T10:55:17.523Z,2.13
2019-04-03T10:57:45.025Z,2.03
2019-04-03T11:00:12.799Z,2.60
2019-04-03T11:02:40.010Z,2.50
2019-04-03T11:05:08.205Z,2.40
2019-04-03T11:07:35.707Z,2.57
2019-04-03T11:10:04.685Z,2.13
2019-04-03T11:12:32.563Z,2.87
2019-04-03T11:14:59.814Z,2.70
2019-04-03T11:17:27.205Z,2.23
2019-04-03T11:19:54.533Z,2.93
2019-04-03T11:22:21.751Z,2.40
2019-04-03T11:24:48.959Z,2.33
2019-04-03T11:27:16.299Z,2.27
2019-04-03T11:29:43.600Z,2.60
2019-04-03T11:32:10.861Z,2.60
2019-04-03T11:34:38.071Z,2.43
2019-04-03T11:37:05.282Z,2.40
2019-04-03T11:39:32.511Z,3.20
2019-04-03T11:41:59.873Z,2.67
2019-04-03T11:44:27.215Z,3.27
2019-04-03T11:46:54.815Z,3.30
2019-04-03T11:49:22.190Z,3.13
2019-04-03T11:51:49.743Z,3.67
2019-04-03T11:54:17.385Z,4.77
2019-04-03T11:56:45.250Z,4.90
2019-04-03T11:59:13.136Z,4.60
2019-04-03T12:01:40.359Z,4.37
2019-04-03T12:04:07.575Z,4.73
2019-04-03T12:06:34.805Z,4.60
2019-04-03T12:09:02.490Z,5.60
2019-04-03T12:11:29.738Z,5.07
2019-04-03T12:13:57.263Z,5.50
2019-04-03T12:16:25.920Z,5.40
2019-04-03T12:18:53.846Z,5.67
2019-04-03T12:21:21.285Z,6.17
2019-04-03T12:23:48.591Z,5.43
2019-04-03T12:26:15.832Z,4.10
2019-04-03T12:28:43.035Z,4.50
2019-04-03T12:31:10.544Z,3.63
2019-04-03T12:33:37.844Z,3.77
2019-04-03T12:36:06.816Z,3.40
2019-04-03T12:38:34.518Z,3.63
2019-04-03T12:41:03.771Z,3.40
2019-04-03T12:43:30.699Z,3.53
2019-04-03T12:46:02.249Z,3.73
2019-04-03T12:48:28.059Z,2.80
2019-04-03T12:50:58.531Z,3.97
2019-04-03T12:53:24.792Z,3.40
2019-04-03T12:55:52.375Z,2.83
2019-04-03T12:58:19.958Z,3.30
2019-04-03T13:00:47.303Z,3.60
2019-04-03T13:03:15.796Z,3.93
2019-04-03T13:05:43.111Z,2.40
2019-04-03T13:08:10.987Z,2.52
2019-04-03T13:10:42.364Z,1.93
2019-04-03T13:13:07.178Z,2.43
2019-04-03T13:15:34.974Z,2.23
2019-04-03T13:18:03.381Z,2.10
2019-04-03T13:20:30.676Z,1.93
2019-04-03T13:22:58.369Z,1.93
2019-04-03T13:25:26.024Z,2.03
2019-04-03T13:27:53.369Z,2.27
2019-04-03T13:30:20.945Z,2.63
2019-04-03T13:32:58.275Z,2.47
2019-04-03T13:35:17.483Z,3.30
2019-04-03T13:37:44.712Z,2.53
2019-04-03T13:40:12.351Z,2.80
2019-04-03T13:42:39.822Z,2.90
2019-04-03T13:45:08.530Z,2.80
2019-04-03T13:47:35.966Z,1.70
2019-04-03T13:50:05.148Z,1.60
2019-04-03T13:52:40.377Z,2.20
2019-04-03T13:55:01.352Z,2.50
2019-04-03T13:57:28.579Z,3.00
2019-04-03T14:00:01.080Z,2.83
2019-04-03T14:02:25.145Z,3.97
2019-04-03T14:04:52.532Z,3.37
2019-04-03T14:07:21.405Z,4.10
2019-04-03T14:09:53.322Z,3.60
2019-04-03T14:12:17.914Z,3.93
2019-04-03T14:14:47.866Z,3.93
2019-04-03T14:17:14.419Z,2.90
2019-04-03T14:19:45.913Z,3.33
2019-04-03T14:22:10.948Z,3.17
2019-04-03T14:24:44.937Z,2.70
2019-04-03T14:27:18.406Z,2.87
2019-04-03T14:29:37.139Z,3.00
2019-04-03T14:32:05.399Z,2.63
2019-04-03T14:34:32.719Z,1.90
2019-04-03T14:36:59.955Z,13.93
2019-04-03T14:39:27.175Z,3.77
2019-04-03T14:41:55.099Z,1.50
2019-04-03T14:44:22.820Z,1.67
2019-04-03T14:46:50.714Z,1.50
2019-04-03T14:49:18.918Z,1.53
2019-04-03T14:51:46.191Z,1.60
2019-04-03T14:54:13.431Z,2.00
2019-04-03T14:56:40.681Z,2.55
2019-04-03T14:59:08.116Z,2.60
2019-04-03T15:01:37.320Z,2.98
2019-04-03T15:04:05.077Z,2.58
2019-04-03T15:06:32.347Z,2.12
2019-04-03T15:08:59.570Z,2.10
2019-04-03T15:11:26.798Z,1.65
2019-04-03T15:13:54.152Z,2.75
2019-04-03T15:16:21.380Z,2.12
2019-04-03T15:18:48.834Z,1.57
2019-04-03T15:21:16.545Z,1.47
2019-04-03T15:23:44.139Z,1.35
2019-04-03T15:26:11.421Z,1.65
2019-04-03T15:28:38.625Z,1.37
2019-04-03T15:31:05.850Z,1.17
2019-04-03T15:33:33.117Z,1.27
2019-04-03T15:36:03.517Z,1.00
2019-04-03T15:38:30.521Z,1.30
2019-04-03T15:40:58.862Z,1.00
2019-04-03T15:43:26.792Z,0.82
2019-04-03T15:45:56.367Z,0.88
2019-04-03T15:48:23.297Z,2.17
2019-04-03T15:50:50.483Z,1.50
2019-04-03T15:53:18.016Z,0.90
2019-04-03T15:55:45.398Z,1.42
2019-04-03T15:58:12.732Z,1.20
2019-04-03T16:00:42.602Z,1.40
2019-04-03T16:03:09.374Z,1.35
2019-04-03T16:05:37.229Z,1.50
2019-04-03T16:08:05.189Z,0.90
2019-04-03T16:10:32.853Z,0.82
2019-04-03T16:13:00.119Z,1.30
2019-04-03T16:15:27.743Z,1.25
2019-04-03T16:17:55.418Z,1.27
2019-04-03T16:20:22.749Z,0.98
2019-04-03T16:22:50.408Z,0.50
2019-04-03T16:25:18.448Z,0.62
2019-04-03T16:27:45.748Z,0.68
2019-04-03T16:30:15.557Z,1.10
2019-04-03T16:32:42.316Z,0.60
2019-04-03T16:35:12.608Z,0.60
2019-04-03T16:37:38.690Z,0.75
2019-04-03T16:40:06.813Z,0.60
2019-04-03T16:42:34.500Z,1.05
2019-04-03T16:45:04.865Z,1.00
2019-04-03T16:47:31.333Z,1.10
2019-04-03T16:49:59.028Z,0.68
2019-04-03T16:52:28.092Z,0.72
2019-04-03T16:54:56.528Z,0.60
2019-04-03T16:57:23.940Z,0.98
2019-04-03T16:59:51.791Z,0.50
2019-04-03T17:02:23.420Z,1.75
2019-04-03T17:04:49.301Z,1.35
2019-04-03T17:07:18.030Z,1.70
2019-04-03T17:09:45.692Z,1.17
2019-04-03T17:12:13.071Z,1.60
2019-04-03T17:14:40.947Z,1.25
2019-04-03T17:17:12.808Z,0.82
2019-04-03T17:19:37.712Z,0.65
2019-04-03T17:22:06.678Z,0.70
2019-04-03T17:24:41.470Z,0.70
2019-04-03T17:27:03.321Z,2.20
2019-04-03T17:29:30.632Z,1.37
2019-04-03T17:31:58.885Z,1.40
2019-04-03T17:34:26.245Z,1.60
2019-04-03T17:36:54.121Z,1.30
2019-04-03T17:39:21.758Z,1.50
2019-04-03T17:41:48.974Z,1.00
2019-04-03T17:44:16.192Z,1.60
2019-04-03T17:46:43.450Z,1.27
2019-04-03T17:49:10.640Z,1.47
2019-04-03T17:51:37.862Z,1.25
2019-04-03T17:54:07.429Z,0.85
2019-04-03T17:56:35.608Z,1.30
2019-04-03T17:59:05.859Z,1.00
2019-04-03T18:01:33.110Z,2.50
2019-04-03T18:04:00.326Z,2.15
2019-04-03T18:06:27.938Z,1.37
2019-04-03T18:08:55.317Z,1.55
2019-04-03T18:11:22.540Z,0.90
2019-04-03T18:13:49.747Z,1.50
2019-04-03T18:16:16.972Z,1.15
2019-04-03T18:18:44.190Z,0.85
2019-04-03T18:21:13.014Z,0.90
2019-04-03T18:23:40.500Z,1.10
2019-04-03T18:26:07.735Z,0.80
2019-04-03T18:28:35.738Z,0.85
2019-04-03T18:31:03.528Z,1.22
2019-04-03T18:33:30.744Z,1.10
2019-04-03T18:35:57.964Z,1.20
2019-04-03T18:38:25.185Z,1.22
2019-04-03T18:40:52.459Z,1.20
2019-04-03T18:43:21.603Z,1.27
2019-04-03T18:45:48.730Z,0.85
2019-04-03T18:48:16.669Z,0.80
2019-04-03T18:50:44.259Z,1.15
2019-04-03T18:53:11.477Z,1.05
2019-04-03T18:55:38.717Z,0.80
2019-04-03T18:58:05.923Z,0.88
2019-04-03T19:00:33.151Z,0.65
2019-04-03T19:03:00.365Z,0.70
2019-04-03T19:05:27.587Z,0.60
2019-04-03T19:07:55.732Z,0.80
2019-04-03T19:10:23.820Z,0.70
2019-04-03T19:12:51.193Z,0.70
2019-04-03T19:15:18.401Z,0.85
2019-04-03T19:17:45.641Z,0.70
2019-04-03T19:20:13.114Z,0.95
2019-04-03T19:22:40.343Z,1.02
2019-04-03T19:25:07.658Z,1.47
2019-04-03T19:27:34.864Z,1.67
2019-04-03T19:30:02.083Z,1.82
2019-04-03T19:32:29.339Z,1.50
2019-04-03T19:34:56.542Z,1.30
2019-04-03T19:37:23.828Z,1.15
2019-04-03T19:39:51.051Z,0.88
2019-04-03T19:42:18.290Z,0.95
2019-04-03T19:44:47.131Z,1.12
2019-04-03T19:47:14.450Z,0.70
2019-04-03T19:49:41.679Z,0.80
2019-04-03T19:52:08.999Z,0.60
2019-04-03T19:54:36.263Z,0.70
2019-04-03T19:57:03.483Z,0.70
2019-04-03T19:59:34.246Z,0.40
2019-04-03T20:01:59.649Z,0.50
2019-04-03T20:04:26.860Z,0.60
2019-04-03T20:06:54.763Z,0.80
2019-04-03T20:09:22.602Z,0.60
2019-04-03T20:11:50.156Z,0.60
2019-04-03T20:14:18.975Z,0.70
2019-04-03T20:16:46.196Z,0.55
2019-04-03T20:19:13.415Z,0.80
2019-04-03T20:21:40.647Z,1.05
2019-04-03T20:24:07.891Z,0.75
2019-04-03T20:26:35.104Z,0.85
2019-04-03T20:29:02.525Z,0.75
2019-04-03T20:31:29.812Z,0.70
2019-04-03T20:33:57.028Z,0.60
2019-04-03T20:36:24.256Z,0.80
2019-04-03T20:38:51.478Z,0.60
2019-04-03T20:41:18.777Z,0.80
2019-04-03T20:43:47.351Z,0.70
2019-04-03T20:46:14.612Z,0.57
2019-04-03T20:48:41.841Z,0.50
2019-04-03T20:51:09.590Z,0.70
2019-04-03T20:53:37.773Z,0.65
2019-04-03T20:56:04.963Z,0.80
2019-04-03T20:58:32.257Z,0.62
2019-04-03T21:01:06.851Z,0.53
2019-04-03T21:03:28.439Z,0.70
2019-04-03T21:05:55.655Z,0.70
2019-04-03T21:08:22.888Z,0.80
2019-04-03T21:10:50.099Z,0.78
2019-04-03T21:13:17.343Z,0.98
2019-04-03T21:15:45.683Z,0.70
2019-04-03T21:18:13.451Z,0.60
2019-04-03T21:20:40.667Z,0.55
2019-04-03T21:23:07.900Z,0.53
2019-04-03T21:25:36.061Z,0.95
2019-04-03T21:28:04.747Z,0.82
2019-04-03T21:30:31.962Z,0.95
2019-04-03T21:32:59.869Z,0.55
2019-04-03T21:35:27.679Z,0.75
2019-04-03T21:37:54.914Z,0.70
2019-04-03T21:40:22.127Z,0.55
2019-04-03T21:42:49.350Z,0.40
2019-04-03T21:45:16.558Z,0.60
2019-04-03T21:47:43.775Z,0.70
2019-04-03T21:50:11.172Z,0.80
2019-04-03T21:52:38.387Z,0.60
2019-04-03T21:55:08.599Z,0.70
2019-04-03T21:57:37.793Z,0.75
2019-04-03T22:00:08.029Z,0.50
2019-04-03T22:02:35.243Z,0.78
2019-04-03T22:05:02.562Z,0.60
2019-04-03T22:07:29.830Z,0.75
2019-04-03T22:09:57.047Z,0.88
2019-04-03T22:12:24.304Z,0.60
2019-04-03T22:14:51.543Z,0.93
2019-04-03T22:17:21.770Z,0.82
2019-04-03T22:19:47.676Z,0.95
2019-04-03T22:22:14.884Z,0.80
2019-04-03T22:24:42.123Z,0.80
2019-04-03T22:27:11.298Z,0.80
2019-04-03T22:29:38.278Z,0.93
2019-04-03T22:32:05.500Z,0.60
2019-04-03T22:34:32.727Z,0.72
2019-04-03T22:36:59.952Z,0.70
2019-04-03T22:39:27.166Z,0.62
2019-04-03T22:41:54.387Z,0.80
2019-04-03T22:44:21.607Z,0.70
2019-04-03T22:46:48.822Z,0.70
2019-04-03T22:49:16.063Z,0.70
2019-04-03T22:51:43.325Z,1.45
2019-04-03T22:54:10.817Z,0.90
2019-04-03T22:56:39.524Z,0.70
2019-04-03T22:59:06.757Z,1.00
2019-04-03T23:01:34.000Z,0.78
2019-04-03T23:04:02.970Z,1.00
2019-04-03T23:06:30.262Z,0.98
2019-04-03T23:08:57.455Z,1.40
2019-04-03T23:11:24.667Z,0.93
2019-04-03T23:13:51.883Z,0.60
2019-04-03T23:16:19.104Z,1.10
2019-04-03T23:18:46.888Z,0.70
2019-04-03T23:21:14.683Z,1.57
2019-04-03T23:23:41.894Z,0.80
2019-04-03T23:26:09.114Z,1.12
2019-04-03T23:28:36.332Z,0.62
2019-04-03T23:31:03.551Z,0.90
2019-04-03T23:33:30.768Z,1.17
2019-04-03T23:35:57.982Z,0.82
2019-04-03T23:38:26.719Z,1.30
2019-04-03T23:40:54.145Z,1.02
2019-04-03T23:43:21.360Z,0.80
2019-04-03T23:45:48.581Z,1.02
2019-04-03T23:48:17.471Z,0.90
2019-04-03T23:50:44.740Z,1.20
2019-04-03T23:53:11.960Z,1.00
2019-04-03T23:55:39.179Z,1.17
2019-04-03T23:58:06.395Z,1.00
